Time;durP1;ratioP1;P1;durP2;ratioP2;P2;SDS_P1;SDS_P2;PMS_P1;PMS_P2;Temp;Humidity;BMP_temperature;BMP_pressure;BME280_temperature;BME280_humidity;BME280_pressure;Samples;Min_cycle;Max_cycle;Signal;HPM_P1;HPM_P2
2021/09/19 00:01:11;;;;;;;7.13;3.90;;;;;;;5.01;65.53;99747.03;5094247;28;20047;-60
2021/09/19 00:03:38;;;;;;;8.50;4.00;;;;;;;4.98;66.09;99744.78;5094199;28;20139;-60
2021/09/19 00:06:04;;;;;;;8.60;4.47;;;;;;;4.95;65.28;99742.56;5092651;28;20113;-62
2021/09/19 00:08:29;;;;;;;7.95;3.83;;;;;;;4.97;65.09;99746.63;5094368;28;20473;-62
2021/09/19 00:10:56;;;;;;;6.57;3.30;;;;;;;4.96;65.64;99750.22;5094148;28;20039;-62
2021/09/19 00:13:22;;;;;;;6.72;3.90;;;;;;;4.95;65.20;99743.34;5094409;28;20464;-62
2021/09/19 00:15:48;;;;;;;6.28;3.88;;;;;;;4.95;65.43;99739.91;5092825;28;20044;-62
2021/09/19 00:18:13;;;;;;;6.15;3.55;;;;;;;4.98;64.81;99750.03;5092820;28;20054;-63
2021/09/19 00:20:40;;;;;;;4.97;3.20;;;;;;;4.96;64.99;99755.47;5093693;28;20036;-60
2021/09/19 00:23:06;;;;;;;5.82;3.33;;;;;;;4.97;65.90;99744.00;5094006;28;20040;-60
2021/09/19 00:25:33;;;;;;;6.43;3.05;;;;;;;4.91;65.49;99741.28;5093588;28;20131;-61
2021/09/19 00:27:58;;;;;;;5.72;3.28;;;;;;;4.94;65.29;99751.41;5094039;28;20040;-60
2021/09/19 00:30:24;;;;;;;7.22;3.67;;;;;;;4.94;65.42;99746.16;5093420;28;20059;-61
2021/09/19 00:32:50;;;;;;;6.43;3.08;;;;;;;4.89;65.96;99741.50;5093469;28;20059;-60
2021/09/19 00:35:16;;;;;;;5.65;3.33;;;;;;;4.89;65.94;99748.56;5075273;28;20416;-60
2021/09/19 00:37:42;;;;;;;6.13;3.25;;;;;;;4.89;66.57;99757.25;5093142;28;20421;-59
2021/09/19 00:40:09;;;;;;;6.50;3.80;;;;;;;4.88;65.78;99755.66;5093534;28;20039;-58
2021/09/19 00:42:34;;;;;;;6.55;3.08;;;;;;;4.86;66.10;99762.09;5092183;28;20047;-60
2021/09/19 00:45:05;;;;;;;6.28;3.40;;;;;;;4.86;65.95;99756.84;5093213;28;20501;-58
2021/09/19 00:47:31;;;;;;;6.22;3.63;;;;;;;4.85;66.12;99761.25;5093505;28;20474;-59
2021/09/19 00:49:56;;;;;;;6.43;3.72;;;;;;;4.87;66.74;99756.63;5093153;28;20050;-62
2021/09/19 00:52:22;;;;;;;5.40;3.70;;;;;;;4.85;66.25;99760.44;5093446;28;20044;-61
2021/09/19 00:54:50;;;;;;;16.17;4.15;;;;;;;4.86;66.94;99767.34;5093373;28;20048;-62
2021/09/19 00:57:16;;;;;;;6.20;3.53;;;;;;;4.86;66.44;99752.38;5093377;28;20043;-61
2021/09/19 00:59:47;;;;;;;5.80;3.42;;;;;;;4.85;66.93;99761.25;5091600;28;20040;-61
2021/09/19 01:02:12;;;;;;;;;;;;;;;4.85;65.95;99765.69;5093592;28;20051;-61
2021/09/19 01:04:38;;;;;;;6.30;3.25;;;;;;;4.82;66.07;99756.38;5093071;28;19923;-60
2021/09/19 01:07:04;;;;;;;8.80;3.10;;;;;;;4.83;66.24;99767.72;5091671;28;20048;-61
2021/09/19 01:09:31;;;;;;;7.53;3.78;;;;;;;4.80;66.55;99757.59;5091346;28;20044;-60
2021/09/19 01:11:56;;;;;;;5.30;3.35;;;;;;;4.78;66.74;99758.59;5074468;28;20417;-60
2021/09/19 01:14:24;;;;;;;6.18;3.67;;;;;;;4.81;66.30;99753.97;5092966;28;20044;-60
2021/09/19 01:16:50;;;;;;;5.47;3.35;;;;;;;4.77;66.25;99754.34;5091549;28;20046;-60
2021/09/19 01:19:18;;;;;;;7.18;3.85;;;;;;;4.75;66.28;99755.53;5092820;28;20040;-60
2021/09/19 01:21:44;;;;;;;3.83;2.97;;;;;;;4.72;65.77;99755.91;5091466;28;20059;-60
2021/09/19 01:24:10;;;;;;;9.85;4.18;;;;;;;4.74;66.65;99765.22;5092463;28;20524;-60
2021/09/19 01:26:35;;;;;;;5.75;3.45;;;;;;;4.72;65.66;99758.53;5092533;28;20043;-61
2021/09/19 01:29:01;;;;;;;7.00;3.55;;;;;;;4.72;65.66;99746.22;5092294;28;20044;-60
2021/09/19 01:31:28;;;;;;;7.03;3.50;;;;;;;4.70;66.20;99753.47;5091114;28;20040;-60
2021/09/19 01:33:54;;;;;;;5.93;3.15;;;;;;;4.68;66.73;99750.25;5090994;28;20516;-62
2021/09/19 01:36:20;;;;;;;6.75;3.20;;;;;;;4.63;66.13;99744.72;5091278;28;20416;-60
2021/09/19 01:38:46;;;;;;;9.25;3.80;;;;;;;4.66;66.51;99739.09;5092188;28;20035;-60
2021/09/19 01:41:22;;;;;;;7.43;3.72;;;;;;;4.65;66.60;99742.75;5091855;28;20494;-61
2021/09/19 01:43:48;;;;;;;4.85;3.33;;;;;;;4.63;67.27;99738.69;5091916;28;20048;-60
2021/09/19 01:46:14;;;;;;;5.82;3.50;;;;;;;4.62;66.72;99740.50;5091122;28;20044;-60
2021/09/19 01:48:41;;;;;;;8.07;4.28;;;;;;;4.58;67.48;99733.97;5092212;28;20040;-60
2021/09/19 01:51:08;;;;;;;8.48;3.80;;;;;;;4.53;67.44;99729.31;5091994;28;20036;-60
2021/09/19 01:53:35;;;;;;;6.45;3.60;;;;;;;4.53;67.46;99734.56;5092181;28;20044;-60
2021/09/19 01:56:01;;;;;;;5.90;3.50;;;;;;;4.50;67.54;99731.47;5073774;28;20044;-62
2021/09/19 01:58:26;;;;;;;5.68;3.83;;;;;;;4.44;67.63;99727.00;5092508;28;20055;-59
2021/09/19 02:00:57;;;;;;;8.02;3.78;;;;;;;4.45;67.65;99734.69;5092049;28;20055;-61
2021/09/19 02:03:22;;;;;;;7.25;3.70;;;;;;;4.42;67.45;99729.00;5092465;28;20040;-60
2021/09/19 02:05:48;;;;;;;8.70;3.72;;;;;;;4.40;67.58;99733.63;5091754;28;20040;-61
2021/09/19 02:08:14;;;;;;;7.15;3.60;;;;;;;4.37;68.13;99728.75;5092068;28;20051;-61
2021/09/19 02:10:40;;;;;;;6.20;3.72;;;;;;;4.31;68.59;99731.13;5091940;28;20492;-61
2021/09/19 02:13:06;;;;;;;7.45;3.83;;;;;;;4.28;67.86;99723.63;5092122;28;20081;-60
2021/09/19 02:15:32;;;;;;;8.75;4.30;;;;;;;4.27;68.12;99711.53;5091937;28;20131;-61
2021/09/19 02:17:58;;;;;;;10.77;4.57;;;;;;;4.29;68.32;99709.53;5092074;28;20035;-61
2021/09/19 02:20:24;;;;;;;8.07;3.85;;;;;;;4.27;68.85;99731.72;5091578;28;20130;-61
2021/09/19 02:22:50;;;;;;;10.63;3.85;;;;;;;4.23;68.94;99715.50;5091889;28;20040;-60
2021/09/19 02:25:16;;;;;;;7.50;3.75;;;;;;;4.22;68.96;99724.38;5090287;28;20044;-61
2021/09/19 02:27:42;;;;;;;5.97;3.55;;;;;;;4.18;68.27;99720.53;5091765;28;20047;-60
2021/09/19 02:30:11;;;;;;;7.53;3.85;;;;;;;4.17;68.36;99708.38;5090500;28;20044;-59
2021/09/19 02:32:37;;;;;;;8.40;3.42;;;;;;;4.20;68.67;99709.81;5091205;28;20055;-59
2021/09/19 02:35:05;;;;;;;12.98;4.35;;;;;;;4.19;68.53;99710.84;5091401;28;20066;-59
2021/09/19 02:37:30;;;;;;;6.38;3.17;;;;;;;4.16;68.58;99713.84;5091318;28;20048;-59
2021/09/19 02:39:56;;;;;;;11.43;5.30;;;;;;;4.19;68.59;99709.03;5091281;28;20063;-61
2021/09/19 02:42:22;;;;;;;5.82;3.60;;;;;;;4.15;68.58;99702.53;5090214;28;20044;-59
2021/09/19 02:44:48;;;;;;;6.28;3.28;;;;;;;4.14;67.77;99692.22;5091290;28;20093;-59
2021/09/19 02:47:15;;;;;;;6.97;3.55;;;;;;;4.16;67.87;99701.53;5091715;28;20109;-60
2021/09/19 02:49:41;;;;;;;5.80;3.70;;;;;;;4.16;68.18;99706.78;5073564;28;20440;-59
2021/09/19 02:52:07;;;;;;;5.53;3.50;;;;;;;4.17;67.83;99697.09;5090874;28;20048;-60
2021/09/19 02:54:32;;;;;;;10.98;4.57;;;;;;;4.17;67.50;99702.34;5093354;28;20122;-60
2021/09/19 02:56:59;;;;;;;8.52;3.28;;;;;;;4.20;67.96;99705.38;5095643;28;20046;-60
2021/09/19 02:59:25;;;;;;;8.18;3.53;;;;;;;4.23;67.67;99698.94;5095097;28;20044;-60
2021/09/19 03:01:51;;;;;;;5.22;3.25;;;;;;;4.25;67.60;99712.72;5077053;28;20040;-58
2021/09/19 03:04:17;;;;;;;8.90;4.05;;;;;;;4.25;66.92;99705.63;5094200;28;20044;-60
2021/09/19 03:06:42;;;;;;;4.05;3.22;;;;;;;4.29;66.59;99724.44;5095191;28;20040;-59
2021/09/19 03:09:08;;;;;;;7.55;4.10;;;;;;;4.30;66.35;99700.66;5093981;28;20125;-59
2021/09/19 03:11:34;;;;;;;6.35;3.85;;;;;;;4.30;66.77;99707.72;5094880;28;20113;-60
2021/09/19 03:13:59;;;;;;;5.60;3.65;;;;;;;4.31;66.62;99711.94;5095375;28;20040;-61
2021/09/19 03:16:25;;;;;;;5.82;3.80;;;;;;;4.31;66.57;99706.69;5094983;28;20032;-60
2021/09/19 03:18:51;;;;;;;6.47;3.60;;;;;;;4.33;65.69;99712.59;5094871;28;20040;-60
2021/09/19 03:21:17;;;;;;;7.93;4.10;;;;;;;4.30;65.98;99703.28;5094885;28;20486;-60
2021/09/19 03:23:43;;;;;;;7.15;4.22;;;;;;;4.35;66.46;99712.38;5093418;28;20044;-60
2021/09/19 03:26:09;;;;;;;6.50;4.07;;;;;;;4.37;66.20;99715.63;5094934;28;20548;-61
2021/09/19 03:28:34;;;;;;;9.82;4.22;;;;;;;4.36;65.59;99712.22;5095148;28;20039;-61
2021/09/19 03:31:01;;;;;;;7.13;4.03;;;;;;;4.37;65.52;99703.31;5095010;28;20039;-62
2021/09/19 03:33:26;;;;;;;6.47;3.38;;;;;;;4.41;66.04;99707.22;5094376;28;20117;-60
2021/09/19 03:35:52;;;;;;;7.38;4.15;;;;;;;4.43;65.75;99701.75;5094646;28;20470;-60
2021/09/19 03:38:18;;;;;;;9.25;3.97;;;;;;;4.44;66.00;99695.50;5075941;28;20047;-60
2021/09/19 03:40:44;;;;;;;7.82;4.65;;;;;;;4.47;65.34;99703.81;5094563;28;20126;-61
2021/09/19 03:43:10;;;;;;;11.55;4.70;;;;;;;4.49;65.74;99699.19;5094760;28;20130;-60
2021/09/19 03:45:35;;;;;;;7.22;4.32;;;;;;;4.49;65.79;99706.25;5094719;28;20408;-60
2021/09/19 03:48:03;;;;;;;8.00;5.40;;;;;;;4.49;66.02;99703.63;5093442;28;20064;-60
2021/09/19 03:50:29;;;;;;;7.25;3.80;;;;;;;4.52;65.39;99700.63;5094499;28;20449;-59
2021/09/19 03:52:55;;;;;;;6.90;4.30;;;;;;;4.53;65.45;99697.81;5094620;28;20044;-60
2021/09/19 03:55:21;;;;;;;6.00;3.85;;;;;;;4.53;65.92;99694.38;5092941;28;20126;-59
2021/09/19 03:57:47;;;;;;;9.15;4.18;;;;;;;4.55;65.86;99705.47;5093935;28;20443;-59
2021/09/19 04:00:13;;;;;;;11.98;4.63;;;;;;;4.55;65.56;99703.66;5094315;28;20040;-61
2021/09/19 04:02:40;;;;;;;7.15;4.80;;;;;;;4.58;65.96;99701.66;5094518;28;20048;-60
2021/09/19 04:05:07;;;;;;;18.42;5.72;;;;;;;4.54;65.61;99714.38;5093814;28;20193;-60
2021/09/19 04:07:33;;;;;;;7.03;4.20;;;;;;;4.53;65.75;99720.63;5094330;28;20123;-57
2021/09/19 04:09:59;;;;;;;7.10;3.65;;;;;;;4.51;65.43;99707.69;5094465;28;20166;-61
2021/09/19 04:12:25;;;;;;;9.50;4.30;;;;;;;4.52;65.34;99705.88;5092691;28;20048;-59
2021/09/19 04:14:51;;;;;;;4.90;3.80;;;;;;;4.52;66.18;99708.50;5092594;28;20044;-60
2021/09/19 04:17:16;;;;;;;8.70;4.38;;;;;;;4.52;65.54;99711.91;5094102;28;20047;-60
2021/09/19 04:19:42;;;;;;;8.02;4.53;;;;;;;4.53;65.58;99726.69;5093983;28;20084;-62
2021/09/19 04:22:09;;;;;;;9.18;4.53;;;;;;;4.52;65.91;99713.75;5093970;28;20378;-60
2021/09/19 04:24:35;;;;;;;8.52;4.75;;;;;;;4.51;65.67;99717.38;5093420;28;20047;-62
2021/09/19 04:27:01;;;;;;;7.40;3.95;;;;;;;4.53;66.30;99718.81;5093727;28;20109;-60
2021/09/19 04:29:26;;;;;;;8.40;4.63;;;;;;;4.52;65.93;99709.28;5075470;28;20126;-59
2021/09/19 04:31:52;;;;;;;9.52;4.80;;;;;;;4.52;65.59;99717.16;5093446;28;20512;-60
2021/09/19 04:34:18;;;;;;;12.07;4.80;;;;;;;4.50;65.99;99707.84;5094052;28;20572;-61
2021/09/19 04:36:44;;;;;;;12.75;4.38;;;;;;;4.46;65.81;99698.75;5093680;28;20054;-60
2021/09/19 04:39:09;;;;;;;9.65;4.25;;;;;;;4.53;66.11;99708.31;5093535;28;20050;-60
2021/09/19 04:41:35;;;;;;;8.25;3.97;;;;;;;4.55;66.16;99716.78;5093323;28;20067;-60
2021/09/19 04:44:01;;;;;;;7.20;4.85;;;;;;;4.57;65.43;99708.75;5093423;28;20067;-60
2021/09/19 04:46:28;;;;;;;7.50;3.90;;;;;;;4.57;65.79;99715.81;5092021;28;20126;-60
2021/09/19 04:48:56;;;;;;;10.27;5.05;;;;;;;4.61;66.19;99709.97;5093618;28;20226;-61
2021/09/19 04:51:22;;;;;;;8.88;4.97;;;;;;;4.67;65.42;99716.28;5093309;28;20081;-60
2021/09/19 04:53:48;;;;;;;7.60;4.30;;;;;;;4.66;65.26;99715.47;5092917;28;20131;-60
2021/09/19 04:56:14;;;;;;;9.70;4.45;;;;;;;4.71;66.10;99710.47;5093001;28;20127;-60
2021/09/19 04:58:40;;;;;;;7.88;4.68;;;;;;;4.69;65.21;99712.47;5093180;28;20040;-60
2021/09/19 05:01:07;;;;;;;11.75;5.70;;;;;;;4.76;65.55;99715.97;5091932;28;20047;-60
2021/09/19 05:03:33;;;;;;;8.20;4.30;;;;;;;4.78;64.63;99711.31;5091939;28;20069;-61
2021/09/19 05:05:59;;;;;;;9.82;5.13;;;;;;;4.81;64.79;99717.19;5091860;28;20048;-61
2021/09/19 05:08:25;;;;;;;8.80;4.93;;;;;;;4.85;65.14;99713.16;5091579;28;20054;-60
2021/09/19 05:10:51;;;;;;;10.25;5.35;;;;;;;4.86;65.70;99717.44;5074677;28;20135;-61
2021/09/19 05:13:17;;;;;;;9.20;4.57;;;;;;;4.85;65.24;99719.22;5092928;28;20043;-61
2021/09/19 05:15:43;;;;;;;6.55;3.78;;;;;;;4.88;64.43;99716.25;5100261;28;20039;-62
2021/09/19 05:18:09;;;;;;;6.93;4.72;;;;;;;4.97;64.25;99732.66;5112851;28;20481;-60
2021/09/19 05:20:34;;;;;;;8.70;4.53;;;;;;;4.96;64.19;99717.88;5113032;28;20039;-62
2021/09/19 05:23:00;;;;;;;7.68;4.70;;;;;;;4.95;63.95;99711.84;5111659;28;20043;-58
2021/09/19 05:25:26;;;;;;;11.35;4.72;;;;;;;4.98;64.69;99715.91;5113098;28;20054;-59
2021/09/19 05:27:52;;;;;;;8.52;4.65;;;;;;;5.03;64.13;99715.31;5113000;28;20040;-58
2021/09/19 05:30:18;;;;;;;6.85;3.72;;;;;;;5.07;64.34;99724.44;5112693;28;20046;-58
2021/09/19 05:32:44;;;;;;;11.55;5.25;;;;;;;5.17;64.40;99723.06;5111126;28;20504;-56
2021/09/19 05:35:10;;;;;;;7.43;4.38;;;;;;;5.18;63.85;99722.06;5112590;28;20047;-58
2021/09/19 05:37:36;;;;;;;8.43;4.95;;;;;;;5.12;64.01;99711.53;5112806;28;20040;-57
2021/09/19 05:40:04;;;;;;;9.93;5.43;;;;;;;5.17;63.41;99712.56;5112773;28;20044;-58
2021/09/19 05:42:29;;;;;;;7.95;4.45;;;;;;;5.19;63.34;99702.66;5112681;28;20484;-56
2021/09/19 05:44:55;;;;;;;14.15;5.28;;;;;;;5.14;63.98;99707.69;5110959;28;20496;-58
2021/09/19 05:47:21;;;;;;;7.95;4.82;;;;;;;5.29;63.98;99706.75;5111326;28;20036;-57
2021/09/19 05:49:47;;;;;;;10.93;4.93;;;;;;;5.30;63.99;99706.56;5112267;28;20040;-59
2021/09/19 05:52:13;;;;;;;7.63;4.63;;;;;;;5.33;63.16;99702.75;5112434;28;20048;-59
2021/09/19 05:54:38;;;;;;;11.90;4.57;;;;;;;5.33;63.80;99711.44;5112276;28;20047;-58
2021/09/19 05:57:04;;;;;;;9.48;5.03;;;;;;;5.32;63.07;99704.53;5112141;28;20070;-56
2021/09/19 05:59:30;;;;;;;9.77;4.47;;;;;;;5.30;63.62;99695.25;5112594;28;20051;-57
2021/09/19 06:01:56;;;;;;;9.02;5.72;;;;;;;5.37;63.10;99719.75;5112214;28;20035;-57
2021/09/19 06:04:23;;;;;;;12.43;5.57;;;;;;;5.38;63.45;99705.56;5112048;28;20520;-58
2021/09/19 06:06:49;;;;;;;10.40;4.60;;;;;;;5.39;63.41;99704.59;5112141;28;20039;-59
2021/09/19 06:09:15;;;;;;;15.35;5.70;;;;;;;5.43;63.24;99711.06;5111975;28;20058;-62
2021/09/19 06:11:42;;;;;;;8.30;4.32;;;;;;;5.43;63.21;99711.06;5111598;28;20043;-63
2021/09/19 06:14:08;;;;;;;8.60;4.65;;;;;;;5.43;63.04;99714.50;5110583;28;20089;-60
2021/09/19 06:16:34;;;;;;;10.60;5.72;;;;;;;5.44;63.58;99705.63;5111634;28;20175;-58
2021/09/19 06:19:00;;;;;;;7.38;4.60;;;;;;;5.44;63.41;99705.63;5111356;28;20048;-58
2021/09/19 06:21:26;;;;;;;12.57;5.70;;;;;;;5.52;63.42;99703.81;5109959;28;20032;-57
2021/09/19 06:23:51;;;;;;;13.48;5.07;;;;;;;5.54;62.88;99721.03;5111772;28;20421;-58
2021/09/19 06:26:17;;;;;;;9.57;5.60;;;;;;;5.57;63.25;99702.22;5093448;28;20043;-58
2021/09/19 06:28:43;;;;;;;18.88;5.35;;;;;;;5.57;62.21;99706.69;5110326;28;20582;-58
2021/09/19 06:31:08;;;;;;;10.80;5.00;;;;;;;5.63;63.08;99701.44;5111765;28;20043;-59
2021/09/19 06:33:35;;;;;;;8.50;4.80;;;;;;;5.63;62.70;99706.69;5111602;28;20063;-58
2021/09/19 06:36:03;;;;;;;10.60;4.90;;;;;;;5.65;61.91;99699.44;5111286;28;20516;-57
2021/09/19 06:38:29;;;;;;;9.57;5.70;;;;;;;5.66;62.87;99698.41;5112542;28;20039;-57
2021/09/19 06:40:54;;;;;;;11.30;4.47;;;;;;;5.66;62.48;99693.16;5111682;28;20088;-63
2021/09/19 06:43:20;;;;;;;7.90;5.20;;;;;;;5.69;61.93;99691.94;5112080;28;20044;-61
2021/09/19 06:45:46;;;;;;;10.77;5.28;;;;;;;5.68;62.38;99691.16;5110188;28;20513;-63
2021/09/19 06:48:12;;;;;;;12.88;5.20;;;;;;;5.76;62.36;99692.75;5112124;28;20078;-61
2021/09/19 06:50:37;;;;;;;18.20;5.90;;;;;;;5.86;62.21;99695.03;5111805;28;20043;-60
2021/09/19 06:53:03;;;;;;;11.15;5.50;;;;;;;5.88;61.75;99698.25;5111956;28;20092;-59
2021/09/19 06:55:29;;;;;;;10.98;4.95;;;;;;;5.85;61.94;99686.34;5111477;28;20050;-58
2021/09/19 06:57:56;;;;;;;11.23;4.93;;;;;;;5.88;62.18;99682.47;5112076;28;20042;-62
2021/09/19 07:00:22;;;;;;;8.38;4.82;;;;;;;5.85;62.04;99688.97;5111668;28;20035;-62
2021/09/19 07:02:48;;;;;;;14.45;5.47;;;;;;;5.88;61.77;99682.47;5111620;28;20095;-61
2021/09/19 07:05:14;;;;;;;11.93;4.82;;;;;;;5.82;61.89;99681.44;5111352;28;20134;-62
2021/09/19 07:07:40;;;;;;;13.48;5.30;;;;;;;5.99;61.94;99676.66;5093367;28;20054;-61
2021/09/19 07:10:06;;;;;;;13.52;5.28;;;;;;;5.92;61.23;99686.34;5109783;28;20048;-62
2021/09/19 07:12:32;;;;;;;15.43;5.40;;;;;;;6.05;61.37;99675.06;5110067;28;20043;-60
2021/09/19 07:14:58;;;;;;;9.95;5.05;;;;;;;6.11;61.35;99675.06;5110008;28;20239;-61
2021/09/19 07:17:24;;;;;;;9.18;4.82;;;;;;;6.20;60.94;99680.13;5111308;28;20408;-62
2021/09/19 07:19:49;;;;;;;10.88;4.45;;;;;;;6.29;60.51;99682.34;5111131;28;20039;-63
2021/09/19 07:22:15;;;;;;;6.60;4.43;;;;;;;6.40;60.51;99680.16;5109997;28;20044;-60
2021/09/19 07:24:41;;;;;;;7.40;4.35;;;;;;;6.46;59.93;99684.59;5111340;28;20410;-59
2021/09/19 07:27:07;;;;;;;7.70;4.88;;;;;;;6.50;59.77;99677.91;5111500;28;20508;-60
2021/09/19 07:29:34;;;;;;;7.63;4.80;;;;;;;6.61;59.66;99682.56;5111086;28;20043;-61
2021/09/19 07:32:06;;;;;;;8.07;4.50;;;;;;;6.69;59.41;99684.97;5109551;28;20060;-60
2021/09/19 07:34:32;;;;;;;9.98;4.68;;;;;;;6.71;58.61;99682.16;5109944;28;20036;-60
2021/09/19 07:36:58;;;;;;;8.55;4.45;;;;;;;6.68;58.94;99687.84;5111387;28;20043;-60
2021/09/19 07:39:24;;;;;;;15.27;5.90;;;;;;;6.78;58.77;99693.50;5111251;28;20648;-60
2021/09/19 07:41:53;;;;;;;10.40;4.72;;;;;;;6.63;58.75;99690.25;5115085;28;20078;-60
2021/09/19 07:44:20;;;;;;;9.63;4.60;;;;;;;6.68;59.08;99683.38;5115069;28;20083;-60
2021/09/19 07:46:49;;;;;;;13.65;5.28;;;;;;;6.78;59.15;99678.47;5113265;28;20093;-60
2021/09/19 07:49:16;;;;;;;11.57;5.43;;;;;;;6.79;58.73;99668.75;5113884;28;20398;-61
2021/09/19 07:51:43;;;;;;;11.02;4.03;;;;;;;6.78;58.52;99664.50;5114787;28;20062;-59
2021/09/19 07:54:09;;;;;;;18.15;5.35;;;;;;;6.82;58.60;99663.06;5113534;28;20413;-61
2021/09/19 07:56:35;;;;;;;14.95;4.65;;;;;;;6.80;58.19;99651.94;5114760;28;20489;-60
2021/09/19 07:59:01;;;;;;;19.42;4.53;;;;;;;6.76;58.40;99664.69;5114515;28;20656;-60
2021/09/19 08:01:27;;;;;;;8.13;4.55;;;;;;;6.82;58.43;99648.09;5114548;28;20050;-63
2021/09/19 08:03:53;;;;;;;8.98;4.32;;;;;;;6.83;58.47;99669.97;5114734;28;20130;-63
2021/09/19 08:06:22;;;;;;;18.73;5.60;;;;;;;6.82;58.11;99663.91;5114749;28;20138;-60
2021/09/19 08:08:48;;;;;;;8.95;4.25;;;;;;;6.80;58.83;99646.66;5114174;28;20047;-60
2021/09/19 08:11:15;;;;;;;11.13;5.30;;;;;;;6.98;58.13;99657.38;5114203;28;20445;-60
2021/09/19 08:13:41;;;;;;;8.85;4.90;;;;;;;7.10;58.14;99660.16;5095828;28;20512;-60
2021/09/19 08:16:06;;;;;;;8.55;4.57;;;;;;;7.14;57.83;99652.66;5114148;28;20040;-61
2021/09/19 08:18:32;;;;;;;7.78;4.38;;;;;;;7.13;57.17;99651.84;5109291;28;20043;-59
2021/09/19 08:21:01;;;;;;;9.63;4.90;;;;;;;7.16;57.21;99646.16;5113964;28;20683;-59
2021/09/19 08:23:26;;;;;;;8.95;4.43;;;;;;;7.13;57.64;99657.13;5112374;28;20050;-60
2021/09/19 08:25:52;;;;;;;9.65;4.30;;;;;;;7.13;57.64;99664.22;5113913;28;20040;-61
2021/09/19 08:28:18;;;;;;;9.35;4.40;;;;;;;7.13;57.65;99666.84;5114190;28;20044;-60
2021/09/19 08:30:44;;;;;;;12.43;4.68;;;;;;;7.18;57.95;99661.78;5113748;28;20061;-60
2021/09/19 08:33:10;;;;;;;8.52;4.25;;;;;;;7.18;57.09;99664.41;5112900;28;20054;-59
2021/09/19 08:35:37;;;;;;;8.68;3.95;;;;;;;7.12;57.77;99663.41;5114099;28;20457;-61
2021/09/19 08:38:03;;;;;;;5.55;3.60;;;;;;;7.16;57.43;99663.81;5112743;28;20042;-61
2021/09/19 08:40:29;;;;;;;8.48;4.38;;;;;;;7.23;57.14;99672.47;5113879;28;20043;-60
2021/09/19 08:42:55;;;;;;;5.25;3.78;;;;;;;7.18;56.72;99659.94;5114066;28;20426;-60
2021/09/19 08:45:22;;;;;;;8.90;4.15;;;;;;;7.21;56.80;99670.06;5113502;28;20055;-65
2021/09/19 08:47:50;;;;;;;11.35;4.75;;;;;;;7.31;56.72;99660.91;5113764;28;20039;-65
2021/09/19 08:50:17;;;;;;;6.75;4.18;;;;;;;7.37;56.41;99655.59;5112358;28;20500;-61
2021/09/19 08:52:43;;;;;;;5.13;3.75;;;;;;;7.38;56.76;99653.75;5113724;28;20051;-60
2021/09/19 08:55:10;;;;;;;9.25;3.95;;;;;;;7.39;56.13;99648.28;5113375;28;20482;-65
2021/09/19 08:57:36;;;;;;;14.63;4.40;;;;;;;7.48;56.18;99660.22;5095142;28;20040;-62
2021/09/19 09:00:11;;;;;;;10.38;4.32;;;;;;;7.57;56.50;99652.06;5113098;28;20527;-63
2021/09/19 09:02:54;;;;;;;9.15;4.38;;;;;;;7.68;55.12;99670.69;5078097;28;20044;-60
2021/09/19 09:05:25;;;;;;;7.22;4.07;;;;;;;7.60;55.38;99665.63;5111838;28;20130;-62
2021/09/19 09:07:53;;;;;;;5.50;3.88;;;;;;;7.65;55.96;99665.03;5113629;28;20047;-61
2021/09/19 09:10:33;;;;;;;11.65;4.10;;;;;;;7.87;55.38;99665.50;5112023;28;20047;-61
2021/09/19 09:13:11;;;;;;;7.63;3.60;;;;;;;7.97;55.04;99663.19;5113604;28;20043;-61
2021/09/19 09:16:05;;;;;;;9.35;4.78;;;;;;;8.08;54.85;99653.78;5113341;28;20051;-61
2021/09/19 09:18:32;;;;;;;8.93;3.65;;;;;;;8.16;54.15;99656.16;5112888;28;20050;-61
2021/09/19 09:21:23;;;;;;;4.50;3.10;;;;;;;8.10;53.73;99663.09;5077928;28;20043;-61
2021/09/19 09:23:51;;;;;;;10.50;3.97;;;;;;;8.08;53.64;99659.06;5112798;28;20047;-62
2021/09/19 09:26:21;;;;;;;5.80;3.78;;;;;;;8.10;53.48;99673.66;5112754;28;20492;-61
2021/09/19 09:29:10;;;;;;;5.15;3.38;;;;;;;8.04;53.55;99686.91;5111637;28;20084;-61
2021/09/19 09:31:43;;;;;;;10.63;3.58;;;;;;;8.01;53.52;99663.59;5112469;28;20047;-61
2021/09/19 09:34:25;;;;;;;6.90;3.58;;;;;;;7.97;53.50;99674.56;5112470;28;20054;-60
2021/09/19 09:36:57;;;;;;;6.72;3.42;;;;;;;8.12;53.26;99665.53;5107750;28;20041;-62
2021/09/19 09:39:37;;;;;;;9.82;3.85;;;;;;;8.24;52.97;99663.00;5112309;28;20541;-62
2021/09/19 09:42:13;;;;;;;9.17;3.87;;;;;;;8.36;53.10;99675.28;5112638;28;20039;-61
2021/09/19 09:44:47;;;;;;;12.88;4.10;;;;;;;8.31;52.78;99677.75;5112527;28;20538;-63
2021/09/19 09:47:19;;;;;;;8.20;4.72;;;;;;;8.28;52.96;99661.53;5112450;28;20086;-61
2021/09/19 09:49:48;;;;;;;;;;;;;;;8.29;53.30;99673.72;5112870;28;20054;-61
2021/09/19 09:52:16;;;;;;;6.38;4.07;;;;;;;8.22;53.23;99667.69;5111858;28;19937;-60
2021/09/19 09:54:54;;;;;;;8.00;3.63;;;;;;;8.20;53.05;99663.41;5111882;28;20520;-60
2021/09/19 09:57:59;;;;;;;7.82;3.67;;;;;;;8.10;52.68;99667.56;5112181;28;20046;-60
2021/09/19 10:00:24;;;;;;;8.40;3.53;;;;;;;8.13;53.41;99667.16;5108319;28;20146;-59
2021/09/19 10:02:52;;;;;;;7.53;3.85;;;;;;;8.19;53.22;99653.88;5110411;28;20043;-60
2021/09/19 10:05:19;;;;;;;7.97;4.82;;;;;;;8.20;53.52;99662.59;5111849;28;20518;-61
2021/09/19 10:07:46;;;;;;;9.77;3.67;;;;;;;8.08;53.32;99657.22;5111560;28;20178;-61
2021/09/19 10:10:22;;;;;;;9.70;3.47;;;;;;;8.06;53.42;99661.91;5111402;28;20250;-61
2021/09/19 10:12:50;;;;;;;6.20;3.53;;;;;;;7.99;53.60;99671.69;5110266;28;20044;-60
2021/09/19 10:15:27;;;;;;;5.88;3.50;;;;;;;7.99;53.15;99655.88;5112154;28;20048;-58
2021/09/19 10:17:54;;;;;;;10.93;4.15;;;;;;;7.99;53.51;99655.06;5111534;28;20042;-61
2021/09/19 10:20:37;;;;;;;6.70;3.72;;;;;;;7.95;53.45;99658.13;5110556;28;20071;-64
2021/09/19 10:23:15;;;;;;;6.95;4.03;;;;;;;7.97;53.13;99645.53;5110527;28;20132;-60
2021/09/19 10:25:57;;;;;;;9.85;4.70;;;;;;;8.01;53.93;99642.47;5111842;28;20044;-61
2021/09/19 10:28:39;;;;;;;5.40;3.22;;;;;;;8.01;53.83;99634.53;5111941;28;20040;-61
2021/09/19 10:31:20;;;;;;;9.60;3.70;;;;;;;7.96;54.06;99637.81;5111877;28;20043;-62
2021/09/19 10:33:50;;;;;;;9.85;3.80;;;;;;;7.99;53.86;99634.75;5111991;28;20059;-62
2021/09/19 10:36:22;;;;;;;7.30;3.92;;;;;;;7.88;54.14;99633.63;5111209;28;20046;-62
2021/09/19 10:38:48;;;;;;;6.25;4.07;;;;;;;7.95;54.17;99621.16;5111260;28;20039;-61
2021/09/19 10:41:22;;;;;;;5.30;3.70;;;;;;;7.94;53.92;99627.47;5111086;28;20039;-62
2021/09/19 10:43:56;;;;;;;9.52;4.07;;;;;;;7.96;54.03;99628.06;5110106;28;20407;-62
2021/09/19 10:46:48;;;;;;;5.63;3.45;;;;;;;7.99;53.80;99610.19;5109858;28;20046;-61
2021/09/19 10:49:22;;;;;;;12.02;4.60;;;;;;;7.99;54.48;99612.81;5111252;28;20059;-65
2021/09/19 10:52:00;;;;;;;6.57;3.80;;;;;;;8.05;53.79;99617.25;5111122;28;20039;-63
2021/09/19 10:54:50;;;;;;;4.82;3.33;;;;;;;7.96;54.21;99609.56;5111364;28;20507;-64
2021/09/19 10:57:19;;;;;;;20.63;4.15;;;;;;;7.91;54.64;99606.78;5111396;28;20055;-61
2021/09/19 11:00:12;;;;;;;9.95;4.40;;;;;;;7.94;54.08;99606.38;5111187;28;20044;-61
2021/09/19 11:02:40;;;;;;;8.70;3.72;;;;;;;7.93;54.46;99606.56;5111332;28;20084;-61
2021/09/19 11:05:33;;;;;;;10.68;4.78;;;;;;;7.82;54.38;99615.97;5110883;28;20069;-62
2021/09/19 11:08:08;;;;;;;6.05;3.80;;;;;;;7.74;54.19;99597.78;5109957;28;20044;-62
2021/09/19 11:10:46;;;;;;;5.40;3.63;;;;;;;7.79;54.57;99608.47;5111034;28;20189;-60
2021/09/19 11:13:34;;;;;;;13.10;3.75;;;;;;;7.82;54.37;99591.41;5111631;28;20047;-61
2021/09/19 11:16:06;;;;;;;5.65;3.58;;;;;;;7.81;54.38;99603.81;5109717;28;20051;-61
2021/09/19 11:18:53;;;;;;;6.07;3.63;;;;;;;7.80;54.46;99593.47;5112428;28;20040;-60
2021/09/19 11:21:19;;;;;;;9.40;3.75;;;;;;;7.84;54.98;99595.47;5101913;28;20059;-60
2021/09/19 11:23:48;;;;;;;6.75;3.92;;;;;;;7.86;54.82;99587.34;5099607;28;20500;-62
2021/09/19 11:26:19;;;;;;;8.25;4.55;;;;;;;7.86;54.70;99588.16;5087077;28;20100;-61
2021/09/19 11:28:46;;;;;;;5.90;3.88;;;;;;;7.95;54.69;99599.25;5111431;28;20083;-60
2021/09/19 11:31:14;;;;;;;8.65;4.15;;;;;;;7.93;54.64;99603.91;5110286;28;20032;-62
2021/09/19 11:33:41;;;;;;;16.38;3.83;;;;;;;7.83;54.37;99617.59;5109752;28;20423;-60
2021/09/19 11:36:10;;;;;;;5.55;4.07;;;;;;;7.94;54.19;99589.69;5106518;28;20519;-59
2021/09/19 11:38:41;;;;;;;6.10;3.42;;;;;;;7.97;54.44;99608.56;5110606;28;20394;-61
2021/09/19 11:41:08;;;;;;;7.90;4.25;;;;;;;8.02;54.46;99584.16;5113159;28;20042;-59
2021/09/19 11:43:39;;;;;;;5.43;3.80;;;;;;;7.99;54.20;99573.22;5109410;28;20100;-59
2021/09/19 11:46:13;;;;;;;7.53;3.78;;;;;;;7.92;54.65;99568.81;5113473;28;20044;-58